Time;durP1;ratioP1;P1;durP2;ratioP2;P2;SDS_P1;SDS_P2;PMS_P1;PMS_P2;Temp;Humidity;BMP_temperature;BMP_pressure;BME280_temperature;BME280_humidity;BME280_pressure;Samples;Min_cycle;Max_cycle;Signal;HPM_P1;HPM_P2
2023/11/06 00:00:11;;;;;;;7.97;2.65;;;;;;;26.01;41.37;98228.91;4484524;32;34687;-65
2023/11/06 00:02:39;;;;;;;5.62;2.78;;;;;;;26.00;41.41;98237.38;4484472;32;32948;-65
2023/11/06 00:05:08;;;;;;;4.65;2.40;;;;;;;25.99;41.45;98233.03;4484417;32;33836;-65
2023/11/06 00:07:37;;;;;;;6.80;2.62;;;;;;;25.97;41.42;98238.75;4484878;32;34459;-65
2023/11/06 00:10:08;;;;;;;6.45;2.83;;;;;;;25.97;41.47;98246.94;4484339;32;33971;-64
2023/11/06 00:12:36;;;;;;;4.90;2.62;;;;;;;25.96;41.51;98250.78;4484561;32;33643;-64
2023/11/06 00:15:04;;;;;;;5.78;2.62;;;;;;;25.94;41.53;98259.28;4484322;32;33804;-65
2023/11/06 00:17:32;;;;;;;3.67;2.33;;;;;;;25.94;41.65;98258.47;4484463;32;34074;-65
2023/11/06 00:20:00;;;;;;;6.55;2.90;;;;;;;25.94;41.69;98266.66;4484524;32;34005;-65
2023/11/06 00:22:27;;;;;;;5.60;2.75;;;;;;;25.91;41.70;98273.50;4484364;32;33255;-65
2023/11/06 00:24:55;;;;;;;4.47;2.45;;;;;;;25.91;41.70;98273.50;4484448;32;33807;-65
2023/11/06 00:27:25;;;;;;;5.65;2.70;;;;;;;25.90;41.68;98279.25;4484232;32;33989;-65
2023/11/06 00:29:52;;;;;;;5.40;2.50;;;;;;;25.90;41.85;98281.97;4484288;32;33905;-65
2023/11/06 00:32:20;;;;;;;11.48;2.97;;;;;;;25.90;41.75;98287.44;4483210;32;33353;-65
2023/11/06 00:34:47;;;;;;;5.75;2.62;;;;;;;25.87;41.78;98291.53;4484275;32;33377;-65
2023/11/06 00:37:15;;;;;;;3.92;2.50;;;;;;;25.87;41.80;98291.53;4484210;32;33921;-65
2023/11/06 00:39:43;;;;;;;4.00;2.17;;;;;;;25.87;41.72;98304.38;4484385;32;33818;-65
2023/11/06 00:42:10;;;;;;;4.97;2.30;;;;;;;25.86;41.79;98305.47;4484186;32;34324;-65
2023/11/06 00:44:38;;;;;;;4.03;2.65;;;;;;;25.85;41.74;98303.84;4484055;32;34301;-65
2023/11/06 00:47:06;;;;;;;4.57;2.60;;;;;;;25.85;41.94;98303.84;4484104;32;34134;-65
2023/11/06 00:49:34;;;;;;;10.73;2.40;;;;;;;25.83;42.09;98304.13;4484112;32;34663;-65
2023/11/06 00:52:02;;;;;;;4.70;2.70;;;;;;;25.83;42.07;98323.25;4484083;32;33265;-65
2023/11/06 00:54:30;;;;;;;6.40;2.50;;;;;;;25.82;42.07;98323.53;4484171;32;33614;-65
2023/11/06 00:56:59;;;;;;;3.58;2.00;;;;;;;25.81;42.06;98339.09;4482892;32;33621;-65
2023/11/06 00:59:27;;;;;;;3.70;2.28;;;;;;;25.81;42.04;98351.94;4483870;32;33977;-64
2023/11/06 01:01:55;;;;;;;5.80;2.90;;;;;;;25.80;42.04;98359.34;4484241;32;33508;-65
2023/11/06 01:04:22;;;;;;;4.25;2.20;;;;;;;25.80;42.13;98359.34;4484071;32;34887;-65
2023/11/06 01:06:52;;;;;;;6.75;2.50;;;;;;;25.78;42.11;98358.78;4483692;32;33485;-65
2023/11/06 01:09:19;;;;;;;4.35;2.42;;;;;;;25.78;42.31;98366.16;4484058;32;33992;-64
2023/11/06 01:11:48;;;;;;;4.10;2.37;;;;;;;25.78;42.20;98358.78;4484036;32;33113;-65
2023/11/06 01:14:16;;;;;;;4.37;2.17;;;;;;;25.77;42.10;98364.53;4483744;31;33836;-65
2023/11/06 01:16:43;;;;;;;5.37;2.47;;;;;;;25.75;42.21;98378.44;4457185;32;33919;-65
2023/11/06 01:19:12;;;;;;;4.82;2.40;;;;;;;25.76;42.19;98395.69;4483856;32;34557;-65
2023/11/06 01:21:41;;;;;;;5.20;2.80;;;;;;;25.74;42.21;98398.66;4483853;32;33940;-65
2023/11/06 01:24:11;;;;;;;5.68;2.37;;;;;;;25.74;42.10;98409.59;4483736;32;33657;-65
2023/11/06 01:26:42;;;;;;;4.97;2.50;;;;;;;25.74;42.14;98419.69;4483716;32;33942;-65
2023/11/06 01:29:11;;;;;;;4.30;2.45;;;;;;;25.73;42.14;98423.50;4483835;32;33618;-65
2023/11/06 01:31:39;;;;;;;3.80;2.50;;;;;;;25.70;42.15;98436.63;4483471;32;33175;-64
2023/11/06 01:34:06;;;;;;;4.62;2.28;;;;;;;25.70;42.14;98431.19;4483605;32;33816;-65
2023/11/06 01:36:34;;;;;;;4.35;2.37;;;;;;;25.67;42.17;98445.38;4483838;32;34492;-65
2023/11/06 01:39:02;;;;;;;3.70;1.95;;;;;;;25.68;42.20;98457.12;4483609;32;33899;-65
2023/11/06 01:41:30;;;;;;;5.12;2.33;;;;;;;25.67;42.22;98458.22;4483716;32;34287;-65
2023/11/06 01:43:58;;;;;;;4.30;2.58;;;;;;;25.67;42.15;98475.41;4483540;32;34010;-65
2023/11/06 01:46:25;;;;;;;6.03;2.15;;;;;;;25.66;42.23;98473.78;4477625;32;35437;-65
2023/11/06 01:48:53;;;;;;;6.82;2.25;;;;;;;25.65;42.23;98483.09;4468342;32;33722;-65
2023/11/06 01:51:21;;;;;;;3.60;2.10;;;;;;;25.65;42.14;98477.63;4482284;32;34403;-65
2023/11/06 01:53:49;;;;;;;3.37;2.05;;;;;;;25.64;42.13;98483.34;4483436;32;33721;-65
2023/11/06 01:56:16;;;;;;;4.57;2.17;;;;;;;25.64;42.08;98484.16;4483210;32;33660;-64
2023/11/06 01:58:44;;;;;;;4.93;2.70;;;;;;;25.63;42.22;98489.91;4469491;32;34834;-64
2023/11/06 02:01:12;;;;;;;3.90;2.10;;;;;;;25.63;42.17;98489.91;4483244;32;33560;-65
2023/11/06 02:03:39;;;;;;;3.35;2.10;;;;;;;25.62;42.25;98488.25;4482117;32;35026;-65
2023/11/06 02:06:08;;;;;;;3.40;1.90;;;;;;;25.61;42.36;98490.19;4481884;32;34201;-65
2023/11/06 02:08:36;;;;;;;3.83;2.13;;;;;;;25.60;42.41;98490.44;4470895;32;33939;-65
2023/11/06 02:11:04;;;;;;;6.03;2.28;;;;;;;25.61;42.36;98490.19;4485311;32;34488;-65
2023/11/06 02:13:32;;;;;;;3.65;2.28;;;;;;;25.60;42.38;98494.00;4483981;32;33819;-65
2023/11/06 02:15:59;;;;;;;7.80;2.00;;;;;;;25.60;42.42;98498.63;4485229;32;34103;-65
2023/11/06 02:18:27;;;;;;;4.10;2.20;;;;;;;25.58;42.54;98504.38;4485539;32;33708;-65
2023/11/06 02:20:56;;;;;;;4.60;2.30;;;;;;;25.58;42.50;98501.63;4485341;32;33367;-65
2023/11/06 02:23:25;;;;;;;4.12;2.47;;;;;;;25.58;42.47;98507.09;4484168;32;33748;-65
2023/11/06 02:25:56;;;;;;;4.47;2.10;;;;;;;25.58;42.58;98504.38;4485086;32;33683;-65
2023/11/06 02:28:24;;;;;;;4.30;2.35;;;;;;;25.57;42.46;98510.94;4485254;32;33807;-65
2023/11/06 02:30:52;;;;;;;6.05;2.67;;;;;;;25.57;42.59;98527.31;4485148;32;33540;-64
2023/11/06 02:33:20;;;;;;;3.77;2.23;;;;;;;25.56;42.44;98528.41;4485280;32;33709;-64
2023/11/06 02:35:48;;;;;;;4.05;2.58;;;;;;;25.57;42.37;98529.22;4485192;32;34662;-64
2023/11/06 02:38:15;;;;;;;5.50;2.37;;;;;;;25.56;42.48;98539.34;4483956;32;34993;-64
2023/11/06 02:40:43;;;;;;;4.35;2.20;;;;;;;25.55;42.52;98545.87;4485163;32;33547;-65
2023/11/06 02:43:11;;;;;;;4.62;2.30;;;;;;;25.54;42.58;98557.91;4485065;32;34759;-64
2023/11/06 02:45:38;;;;;;;3.87;2.12;;;;;;;25.53;42.62;98550.78;4484943;32;34727;-65
2023/11/06 02:48:06;;;;;;;4.05;2.22;;;;;;;25.53;42.75;98560.91;4484905;32;33854;-65
2023/11/06 02:50:33;;;;;;;3.72;1.98;;;;;;;25.52;42.73;98568.28;4485104;32;33348;-65
2023/11/06 02:53:01;;;;;;;3.33;2.03;;;;;;;25.52;42.85;98576.47;4484531;32;33898;-65
2023/11/06 02:55:29;;;;;;;4.32;2.15;;;;;;;25.51;42.75;98569.38;4484884;32;34508;-64
2023/11/06 02:57:58;;;;;;;4.07;1.90;;;;;;;25.51;42.80;98580.31;4484968;32;34744;-63
2023/11/06 03:00:26;;;;;;;3.70;1.98;;;;;;;25.50;42.82;98573.19;4484876;32;33174;-63
2023/11/06 03:02:55;;;;;;;4.65;1.92;;;;;;;25.52;42.73;98572.94;4484949;32;34654;-63
2023/11/06 03:05:23;;;;;;;2.58;1.90;;;;;;;25.50;42.70;98573.19;4485020;32;34832;-64
2023/11/06 03:07:50;;;;;;;4.97;2.20;;;;;;;25.50;42.82;98578.63;4484830;32;33899;-64
2023/11/06 03:10:18;;;;;;;4.20;2.10;;;;;;;25.50;42.91;98580.56;4484538;32;33449;-64
2023/11/06 03:12:47;;;;;;;4.15;2.00;;;;;;;25.48;42.82;98580.84;4483963;32;34578;-64
2023/11/06 03:15:14;;;;;;;3.87;2.08;;;;;;;25.49;42.74;98579.72;4484738;32;33988;-64
2023/11/06 03:17:42;;;;;;;3.28;1.95;;;;;;;25.48;42.93;98577.28;4484967;32;34734;-64
2023/11/06 03:20:10;;;;;;;6.40;2.35;;;;;;;25.47;43.01;98576.47;4483995;32;33553;-63
2023/11/06 03:22:38;;;;;;;3.73;2.17;;;;;;;25.48;42.93;98580.00;4484750;32;33855;-64
2023/11/06 03:25:08;;;;;;;4.78;2.03;;;;;;;25.47;42.92;98568.28;4484883;32;33957;-63
2023/11/06 03:27:35;;;;;;;4.03;2.00;;;;;;;25.48;42.71;98563.62;4484772;32;34128;-64
2023/11/06 03:30:04;;;;;;;4.55;1.85;;;;;;;25.48;42.74;98561.72;4484742;32;34832;-63
2023/11/06 03:32:32;;;;;;;3.70;2.22;;;;;;;25.45;42.93;98565.78;4484818;32;33980;-64
2023/11/06 03:35:00;;;;;;;3.85;1.90;;;;;;;25.45;42.84;98570.44;4485079;32;34782;-64
2023/11/06 03:37:28;;;;;;;4.43;2.00;;;;;;;25.43;42.85;98573.44;4484670;32;33682;-64
2023/11/06 03:39:57;;;;;;;4.70;2.33;;;;;;;25.44;42.82;98575.06;4485036;32;33989;-64
2023/11/06 03:42:24;;;;;;;3.25;2.00;;;;;;;25.43;42.75;98573.44;4484614;32;34546;-64
2023/11/06 03:44:52;;;;;;;3.80;2.05;;;;;;;25.42;42.97;98585.47;4484825;32;33524;-64
2023/11/06 03:47:20;;;;;;;3.55;1.85;;;;;;;25.40;42.87;98579.44;4484584;32;34533;-63
2023/11/06 03:49:48;;;;;;;3.83;1.90;;;;;;;25.40;42.82;98584.91;4484344;32;34141;-63
2023/11/06 03:52:16;;;;;;;5.25;1.90;;;;;;;25.40;42.75;98600.47;4484379;32;34074;-64
2023/11/06 03:54:44;;;;;;;3.95;2.17;;;;;;;25.39;42.88;98604.28;4483490;32;34716;-63
2023/11/06 03:57:11;;;;;;;3.78;1.90;;;;;;;25.40;42.80;98611.38;4484778;32;34026;-63
2023/11/06 03:59:42;;;;;;;3.95;2.10;;;;;;;25.40;42.82;98605.94;4484737;32;33324;-63
2023/11/06 04:02:10;;;;;;;3.72;1.90;;;;;;;25.38;42.80;98603.47;4484651;32;34004;-64
2023/11/06 04:04:37;;;;;;;6.55;1.83;;;;;;;25.36;42.86;98600.16;4484463;32;33907;-63
2023/11/06 04:07:05;;;;;;;3.97;2.17;;;;;;;25.37;42.80;98603.75;4484474;32;33917;-63
2023/11/06 04:09:33;;;;;;;3.70;1.75;;;;;;;25.36;42.68;98608.38;4484584;32;34051;-63
2023/11/06 04:12:02;;;;;;;4.47;2.25;;;;;;;25.36;42.75;98610.28;4484445;32;33842;-63
2023/11/06 04:14:30;;;;;;;5.90;1.95;;;;;;;25.36;42.79;98610.28;4484771;32;33800;-63
2023/11/06 04:16:58;;;;;;;4.62;2.20;;;;;;;25.36;42.73;98615.75;4484370;32;34009;-63
2023/11/06 04:19:25;;;;;;;5.78;2.20;;;;;;;25.35;42.65;98622.28;4484378;32;33431;-63
2023/11/06 04:21:53;;;;;;;4.87;1.90;;;;;;;25.35;42.76;98631.31;4484503;32;34663;-63
2023/11/06 04:24:20;;;;;;;3.42;2.00;;;;;;;25.34;42.79;98634.31;4484445;32;33996;-63
2023/11/06 04:26:48;;;;;;;3.92;2.15;;;;;;;25.34;42.86;98650.69;4484167;32;34801;-63
2023/11/06 04:29:16;;;;;;;5.05;2.45;;;;;;;25.34;42.89;98648.78;4484408;32;33427;-63
2023/11/06 04:31:43;;;;;;;4.43;2.12;;;;;;;25.34;42.77;98654.25;4484153;32;33966;-63
2023/11/06 04:34:11;;;;;;;2.47;1.50;;;;;;;25.33;42.77;98658.06;4484223;32;33906;-63
2023/11/06 04:36:38;;;;;;;5.03;2.00;;;;;;;25.33;42.77;98668.16;4484733;32;33427;-63
2023/11/06 04:39:09;;;;;;;3.95;1.95;;;;;;;25.33;42.81;98665.44;4484446;32;33497;-64
2023/11/06 04:41:37;;;;;;;3.55;2.05;;;;;;;25.31;42.77;98673.06;4484100;32;34832;-64
2023/11/06 04:44:05;;;;;;;3.78;1.83;;;;;;;25.31;42.83;98683.97;4484526;32;34845;-63
2023/11/06 04:46:32;;;;;;;4.97;1.90;;;;;;;25.30;42.91;98687.81;4483308;32;33409;-63
2023/11/06 04:49:00;;;;;;;3.53;1.90;;;;;;;25.29;42.88;98688.91;4483841;32;33451;-63
2023/11/06 04:51:29;;;;;;;5.53;1.92;;;;;;;25.29;42.91;98697.09;4484219;32;33982;-63
2023/11/06 04:53:56;;;;;;;5.15;1.77;;;;;;;25.29;42.97;98703.38;4484427;32;33660;-63
2023/11/06 04:56:24;;;;;;;5.35;2.22;;;;;;;25.28;42.81;98715.38;4484090;32;34506;-64
2023/11/06 04:58:52;;;;;;;22.13;2.30;;;;;;;25.29;42.75;98718.94;4484140;32;34216;-64
2023/11/06 05:01:19;;;;;;;3.33;1.92;;;;;;;25.29;42.85;98718.94;4484120;32;33895;-63
2023/11/06 05:03:47;;;;;;;5.03;1.85;;;;;;;25.29;42.90;98727.13;4484170;32;33837;-63
2023/11/06 05:06:15;;;;;;;3.15;1.87;;;;;;;25.27;42.84;98727.38;4483988;32;34855;-63
2023/11/06 05:08:42;;;;;;;3.72;1.80;;;;;;;25.28;42.84;98733.69;4483993;32;34430;-63
2023/11/06 05:11:11;;;;;;;4.05;1.80;;;;;;;25.27;42.92;98732.00;4483968;32;33630;-64
2023/11/06 05:13:39;;;;;;;3.75;1.80;;;;;;;25.27;42.87;98740.19;4484021;32;33605;-64
2023/11/06 05:16:07;;;;;;;4.07;1.70;;;;;;;25.27;42.95;98751.13;4483775;32;33729;-63
2023/11/06 05:18:36;;;;;;;6.72;1.80;;;;;;;25.26;42.75;98741.28;4482691;32;32942;-63
2023/11/06 05:21:03;;;;;;;3.05;2.15;;;;;;;25.26;42.85;98730.38;4468313;32;34361;-63
2023/11/06 05:23:31;;;;;;;4.97;2.05;;;;;;;25.26;42.94;98733.09;4467946;32;33903;-63
2023/11/06 05:25:59;;;;;;;3.58;1.85;;;;;;;25.25;42.97;98751.41;4468149;32;34516;-63
2023/11/06 05:28:26;;;;;;;4.82;1.87;;;;;;;25.25;42.93;98759.59;4468022;32;33597;-63
2023/11/06 05:30:54;;;;;;;7.47;2.40;;;;;;;25.25;42.84;98772.41;4467854;32;34397;-64
2023/11/06 05:33:22;;;;;;;3.80;1.83;;;;;;;25.24;42.81;98781.69;4468149;32;33965;-63
2023/11/06 05:35:49;;;;;;;3.53;2.05;;;;;;;25.23;42.89;98774.56;4467981;32;34840;-63
2023/11/06 05:38:17;;;;;;;3.95;2.12;;;;;;;25.22;42.94;98787.41;4467875;32;33336;-63
2023/11/06 05:40:45;;;;;;;3.33;1.73;;;;;;;25.22;42.94;98792.03;4468022;32;34180;-63
2023/11/06 05:43:12;;;;;;;4.93;1.95;;;;;;;25.23;42.98;98791.78;4468905;32;33789;-63
2023/11/06 05:45:40;;;;;;;3.65;1.85;;;;;;;25.21;42.83;98796.69;4469820;32;34552;-63
2023/11/06 05:48:08;;;;;;;4.53;1.75;;;;;;;25.21;42.99;98796.69;4458088;32;34067;-63
2023/11/06 05:50:36;;;;;;;3.35;1.80;;;;;;;25.22;42.89;98800.22;4485617;32;33728;-63
2023/11/06 05:53:04;;;;;;;4.78;2.10;;;;;;;25.21;43.01;98806.78;4485670;32;34797;-64
2023/11/06 05:55:32;;;;;;;4.45;1.90;;;;;;;25.20;42.89;98811.41;4485464;32;34141;-63
2023/11/06 05:58:01;;;;;;;3.53;1.92;;;;;;;25.21;42.96;98813.06;4471292;32;33537;-63
2023/11/06 06:00:30;;;;;;;3.65;1.80;;;;;;;25.21;42.80;98820.44;4485306;32;33658;-63
2023/11/06 06:03:01;;;;;;;4.78;1.90;;;;;;;25.19;42.92;98813.34;4485435;32;33685;-63
2023/11/06 06:05:29;;;;;;;2.12;1.55;;;;;;;25.21;43.03;98821.25;4471338;32;34160;-63
2023/11/06 06:07:57;;;;;;;3.03;1.80;;;;;;;25.18;42.91;98821.75;4485236;32;33600;-63
2023/11/06 06:10:25;;;;;;;3.62;1.73;;;;;;;25.19;43.01;98828.88;4485388;32;34073;-64
2023/11/06 06:12:53;;;;;;;4.18;1.62;;;;;;;25.19;42.98;98829.72;4485396;32;34895;-63
2023/11/06 06:15:20;;;;;;;6.03;2.12;;;;;;;25.17;43.10;98841.97;4485241;32;34261;-63
2023/11/06 06:17:48;;;;;;;3.62;1.95;;;;;;;25.17;43.01;98840.06;4485190;32;33526;-63
2023/11/06 06:20:15;;;;;;;3.45;2.03;;;;;;;25.17;43.09;98847.41;4485318;32;34045;-63
2023/11/06 06:22:43;;;;;;;2.65;1.60;;;;;;;25.16;43.04;98852.06;4485605;32;33192;-63
2023/11/06 06:25:12;;;;;;;4.28;1.90;;;;;;;25.15;43.00;98842.22;4485328;32;33791;-63
2023/11/06 06:27:40;;;;;;;3.93;2.10;;;;;;;25.16;43.13;98849.34;4484835;32;32959;-63
2023/11/06 06:30:08;;;;;;;5.43;1.90;;;;;;;25.17;43.05;98852.88;4485112;32;33524;-63
2023/11/06 06:32:36;;;;;;;4.45;2.03;;;;;;;25.16;43.10;98862.16;4485273;32;33510;-64
2023/11/06 06:35:05;;;;;;;4.68;1.85;;;;;;;25.15;43.11;98865.97;4485040;32;33903;-64
2023/11/06 06:37:36;;;;;;;6.82;2.03;;;;;;;25.15;43.01;98864.06;4485209;32;32966;-64
2023/11/06 06:40:08;;;;;;;7.82;1.65;;;;;;;25.15;42.84;98857.78;4485182;32;33612;-65
2023/11/06 06:42:36;;;;;;;3.58;1.73;;;;;;;25.13;41.11;98863.53;4484870;32;33969;-68
2023/11/06 06:45:04;;;;;;;3.22;1.77;;;;;;;25.12;41.31;98866.50;4485019;32;33710;-69
2023/11/06 06:47:32;;;;;;;4.28;1.87;;;;;;;25.08;41.37;98868.91;4483739;31;33553;-68
2023/11/06 06:50:00;;;;;;;2.53;1.50;;;;;;;25.08;41.48;98879.00;4467887;32;33862;-65
2023/11/06 06:52:30;;;;;;;3.33;1.87;;;;;;;25.04;41.43;98880.56;4469503;32;34033;-69
2023/11/06 06:54:58;;;;;;;3.97;1.58;;;;;;;25.01;41.41;98887.38;4469526;32;33797;-68
2023/11/06 06:57:26;;;;;;;6.93;1.77;;;;;;;24.99;41.25;98889.53;4469213;32;32939;-69
2023/11/06 06:59:53;;;;;;;5.68;1.55;;;;;;;24.98;41.22;98892.53;4469258;32;34022;-68
2023/11/06 07:02:21;;;;;;;3.60;1.80;;;;;;;24.95;41.13;98899.34;4469423;32;33856;-70
2023/11/06 07:04:49;;;;;;;15.63;2.60;;;;;;;24.93;41.11;98902.31;4469306;32;33492;-68
2023/11/06 07:07:16;;;;;;;10.98;2.03;;;;;;;24.93;41.18;98913.22;4469318;32;33630;-67
2023/11/06 07:09:44;;;;;;;6.25;1.80;;;;;;;24.92;40.87;98919.78;4469081;32;33782;-67
2023/11/06 07:12:14;;;;;;;4.55;1.92;;;;;;;24.90;40.90;98926.56;4477635;32;34690;-69
2023/11/06 07:14:41;;;;;;;5.67;1.80;;;;;;;24.88;40.88;98926.81;4485057;32;33946;-69
2023/11/06 07:17:09;;;;;;;13.77;2.33;;;;;;;24.87;40.92;98936.09;4484789;32;34070;-69
2023/11/06 07:19:37;;;;;;;4.47;1.80;;;;;;;24.86;40.91;98944.56;4484806;32;33864;-68
2023/11/06 07:22:05;;;;;;;8.30;1.65;;;;;;;24.84;40.64;98955.72;4484824;32;33869;-65
2023/11/06 07:24:34;;;;;;;6.78;1.90;;;;;;;24.83;40.74;98956.78;4484561;32;33707;-65
2023/11/06 07:27:03;;;;;;;8.13;2.22;;;;;;;24.83;40.80;98964.97;4484830;32;33463;-68
2023/11/06 07:29:31;;;;;;;5.93;1.70;;;;;;;24.83;40.88;98969.63;4483632;32;33981;-67
2023/11/06 07:31:59;;;;;;;4.72;1.87;;;;;;;24.80;40.88;98973.66;4484614;32;33852;-68
2023/11/06 07:34:26;;;;;;;7.07;1.83;;;;;;;24.80;40.76;98975.56;4484804;32;34152;-66
2023/11/06 07:36:54;;;;;;;3.62;1.30;;;;;;;24.79;40.78;98979.37;4485008;32;34324;-66
2023/11/06 07:39:21;;;;;;;4.87;1.67;;;;;;;24.77;40.76;98987.84;4484771;32;34389;-68
2023/11/06 07:41:49;;;;;;;6.75;2.12;;;;;;;24.76;40.72;98997.09;4484763;32;33728;-68
2023/11/06 07:44:19;;;;;;;3.95;1.85;;;;;;;24.78;40.59;98991.38;4484781;32;33611;-67
2023/11/06 07:46:48;;;;;;;5.12;1.70;;;;;;;24.77;40.65;98996.03;4484558;32;33876;-67
2023/11/06 07:49:16;;;;;;;3.50;1.80;;;;;;;24.78;40.55;98994.13;4484324;32;34125;-65
2023/11/06 07:51:43;;;;;;;4.12;1.83;;;;;;;24.77;40.67;99001.47;4484712;32;34763;-69
2023/11/06 07:54:11;;;;;;;6.78;1.50;;;;;;;24.78;40.75;99002.31;4483316;32;33734;-65
2023/11/06 07:56:39;;;;;;;4.35;1.50;;;;;;;24.80;40.74;99002.84;4484516;32;33297;-66
2023/11/06 07:59:06;;;;;;;2.97;1.40;;;;;;;24.81;40.89;99007.25;4484583;32;34619;-65
2023/11/06 08:01:34;;;;;;;4.10;1.60;;;;;;;24.81;40.74;99012.72;4484420;32;33921;-66
2023/11/06 08:04:02;;;;;;;4.47;2.30;;;;;;;24.82;40.58;99017.09;4483735;32;34056;-67
2023/11/06 08:06:31;;;;;;;4.43;1.73;;;;;;;24.82;40.64;99033.47;4484328;32;33333;-65
2023/11/06 08:08:59;;;;;;;2.60;1.50;;;;;;;24.82;40.61;99044.38;4484418;32;33702;-66
2023/11/06 08:11:27;;;;;;;4.80;1.70;;;;;;;24.83;40.57;99037.81;4484640;32;34765;-65
2023/11/06 08:13:55;;;;;;;7.85;1.80;;;;;;;24.83;40.56;99048.75;4484436;32;34983;-64
2023/11/06 08:16:22;;;;;;;2.78;1.35;;;;;;;24.81;40.57;99051.72;4484439;32;33945;-64
2023/11/06 08:18:50;;;;;;;3.55;1.50;;;;;;;24.83;40.60;99055.03;4484464;32;33829;-64
2023/11/06 08:21:17;;;;;;;6.70;1.52;;;;;;;24.83;40.61;99057.75;4484511;32;33994;-65
2023/11/06 08:23:45;;;;;;;4.07;1.45;;;;;;;24.83;40.63;99054.19;4484373;32;34567;-63
2023/11/06 08:26:13;;;;;;;2.87;1.40;;;;;;;24.83;40.58;99055.03;4484552;32;33315;-64
2023/11/06 08:28:40;;;;;;;3.55;1.30;;;;;;;24.84;40.54;99061.28;4484379;32;34071;-64
2023/11/06 08:31:09;;;;;;;4.43;1.40;;;;;;;24.85;40.59;99060.22;4484394;32;33543;-64
2023/11/06 08:33:37;;;;;;;6.00;1.70;;;;;;;24.84;40.61;99061.28;4481565;32;33962;-65
2023/11/06 08:36:06;;;;;;;3.10;1.52;;;;;;;24.85;40.61;99066.50;4483799;32;32814;-68
2023/11/06 08:38:34;;;;;;;5.50;1.60;;;;;;;24.85;40.65;99071.94;4483752;32;33539;-69
2023/11/06 08:41:07;;;;;;;3.47;1.37;;;;;;;24.85;40.66;99074.69;4482203;32;33656;-68
2023/11/06 08:43:35;;;;;;;5.43;1.90;;;;;;;24.85;40.70;99076.59;4483327;32;33438;-68
2023/11/06 08:46:04;;;;;;;3.25;1.40;;;;;;;24.86;40.69;99072.81;4483085;32;32867;-68
2023/11/06 08:48:32;;;;;;;4.53;1.67;;;;;;;24.86;40.71;99084.53;4483962;32;33542;-68
2023/11/06 08:51:00;;;;;;;3.90;1.60;;;;;;;24.88;40.68;99082.38;4483984;32;33634;-68
2023/11/06 08:53:27;;;;;;;3.45;1.62;;;;;;;24.87;40.74;99086.19;4484343;32;33783;-68
2023/11/06 08:55:55;;;;;;;3.20;1.50;;;;;;;24.87;40.72;99088.91;4483035;32;33460;-68
2023/11/06 08:58:25;;;;;;;5.05;1.40;;;;;;;24.88;40.74;99092.47;4484036;32;34627;-69
2023/11/06 09:00:53;;;;;;;2.80;1.67;;;;;;;24.87;40.64;99094.37;4484285;32;34917;-69
2023/11/06 09:03:20;;;;;;;3.50;1.40;;;;;;;24.88;40.48;99101.47;4484269;32;34147;-68
2023/11/06 09:05:49;;;;;;;5.82;1.55;;;;;;;24.87;40.58;99099.00;4483989;32;34103;-68
2023/11/06 09:08:18;;;;;;;5.28;1.85;;;;;;;24.87;40.31;99104.47;4484132;32;34211;-67
2023/11/06 09:10:45;;;;;;;3.92;1.40;;;;;;;24.87;40.23;99109.91;4483908;32;34081;-69
2023/11/06 09:13:13;;;;;;;2.90;1.30;;;;;;;24.87;40.14;99120.84;4483894;32;33766;-68
2023/11/06 09:15:41;;;;;;;4.47;1.67;;;;;;;24.86;40.01;99130.94;4483958;32;33659;-67
2023/11/06 09:18:08;;;;;;;2.97;1.20;;;;;;;24.86;39.98;99135.56;4482993;32;34040;-68
2023/11/06 09:20:36;;;;;;;2.87;1.30;;;;;;;24.86;39.96;99138.28;4483889;32;33652;-68
2023/11/06 09:23:06;;;;;;;4.22;1.30;;;;;;;24.85;39.98;99142.06;4483996;32;33465;-69
2023/11/06 09:25:34;;;;;;;4.72;1.58;;;;;;;24.85;39.88;99161.16;4483906;32;33072;-67
2023/11/06 09:28:02;;;;;;;7.05;1.70;;;;;;;24.84;39.83;99148.63;4483132;32;33603;-69
2023/11/06 09:30:29;;;;;;;2.75;1.08;;;;;;;24.84;39.93;99164.97;4483676;32;35049;-66
2023/11/06 09:32:59;;;;;;;3.30;1.35;;;;;;;24.83;39.93;99163.34;4482327;32;33647;-68
2023/11/06 09:35:28;;;;;;;;;;;;;;;24.82;39.90;99162.53;4483906;32;33335;-69
2023/11/06 09:37:56;;;;;;;6.22;1.23;;;;;;;24.90;39.72;99162.09;4483520;32;34558;-69
2023/11/06 09:40:23;;;;;;;3.30;1.40;;;;;;;24.83;39.81;99157.88;4483537;32;34454;-69
2023/11/06 09:42:51;;;;;;;2.70;1.27;;;;;;;24.79;39.91;99167.63;4482372;32;33788;-69
2023/11/06 09:45:19;;;;;;;3.80;1.70;;;;;;;24.78;39.85;99172.28;4482439;32;33227;-69
2023/11/06 09:47:51;;;;;;;4.80;1.35;;;;;;;24.77;39.91;99170.63;4483223;32;34712;-67
2023/11/06 09:50:21;;;;;;;2.97;1.30;;;;;;;24.76;39.85;99170.84;4482210;32;34761;-67
2023/11/06 09:52:49;;;;;;;5.22;1.58;;;;;;;24.77;39.83;99172.53;4483326;32;33876;-69
2023/11/06 09:55:19;;;;;;;4.62;1.70;;;;;;;24.76;39.94;99181.78;4482057;32;33079;-68
2023/11/06 09:57:48;;;;;;;4.93;1.50;;;;;;;24.75;40.11;99183.69;4483364;32;33848;-71
2023/11/06 10:00:20;;;;;;;4.97;1.67;;;;;;;24.75;40.06;99186.41;4483220;32;34738;-68
2023/11/06 10:02:49;;;;;;;4.65;1.80;;;;;;;24.74;40.07;99175.75;4469587;32;34115;-67
2023/11/06 10:05:20;;;;;;;5.43;1.92;;;;;;;24.73;40.12;99174.09;4482112;32;33159;-68
2023/11/06 10:07:52;;;;;;;7.32;1.70;;;;;;;24.73;40.13;99183.13;4478495;32;33898;-69
2023/11/06 10:10:24;;;;;;;4.22;1.67;;;;;;;24.72;40.14;99181.47;4483398;32;34877;-71
2023/11/06 10:13:09;;;;;;;5.90;1.90;;;;;;;24.72;40.16;99183.38;4483154;32;33442;-69
2023/11/06 10:15:37;;;;;;;5.40;2.05;;;;;;;24.75;40.25;99188.31;4483128;32;33177;-68
2023/11/06 10:18:15;;;;;;;4.97;1.60;;;;;;;24.71;39.77;99181.69;4483096;32;33861;-71
2023/11/06 10:20:44;;;;;;;6.65;1.83;;;;;;;24.71;39.55;99174.34;4483083;32;34821;-71
2023/11/06 10:23:13;;;;;;;8.10;1.92;;;;;;;24.70;39.34;99178.16;4483160;32;34614;-69
2023/11/06 10:25:42;;;;;;;6.25;2.05;;;;;;;24.68;39.31;99178.41;4467859;32;33376;-71
2023/11/06 10:28:19;;;;;;;5.45;1.70;;;;;;;24.68;39.10;99185.78;4483065;32;33727;-68
2023/11/06 10:30:51;;;;;;;6.00;1.45;;;;;;;24.67;38.62;99181.41;4485211;32;34013;-69
2023/11/06 10:33:21;;;;;;;5.65;1.67;;;;;;;24.66;38.53;99187.91;4471311;32;33940;-69
2023/11/06 10:35:50;;;;;;;5.78;1.75;;;;;;;24.64;38.17;99182.72;4471290;32;33485;-70
2023/11/06 10:38:36;;;;;;;4.85;1.50;;;;;;;24.64;38.31;99188.16;4484953;32;33618;-70
2023/11/06 10:41:16;;;;;;;5.43;1.73;;;;;;;24.65;37.60;99186.25;4485255;32;34725;-70
2023/11/06 10:43:44;;;;;;;4.03;1.27;;;;;;;24.63;37.92;99189.25;4483992;32;33552;-70
2023/11/06 10:46:30;;;;;;;5.40;1.40;;;;;;;24.61;37.97;99196.84;4485248;32;34241;-69
2023/11/06 10:49:06;;;;;;;4.72;1.45;;;;;;;24.59;37.50;99193.53;4484789;32;33698;-70
2023/11/06 10:51:34;;;;;;;1.95;1.02;;;;;;;24.58;37.43;99200.09;4483884;32;33922;-72
2023/11/06 10:54:02;;;;;;;3.37;1.48;;;;;;;24.56;37.11;99196.75;4483544;32;34116;-69
2023/11/06 10:56:30;;;;;;;7.15;1.77;;;;;;;24.55;37.17;99200.56;4483923;32;33476;-69
2023/11/06 10:58:59;;;;;;;5.90;1.70;;;;;;;24.54;37.16;99198.91;4483764;32;33970;-67
2023/11/06 11:01:29;;;;;;;2.87;1.30;;;;;;;24.54;36.97;99198.91;4470791;32;33933;-70
2023/11/06 11:03:58;;;;;;;5.60;1.35;;;;;;;24.54;37.05;99201.66;4484044;32;33574;-70
2023/11/06 11:06:25;;;;;;;4.50;1.67;;;;;;;24.52;37.16;99192.87;4483813;32;34307;-69
2023/11/06 11:08:53;;;;;;;4.60;1.75;;;;;;;24.51;37.04;99204.88;4470699;32;34755;-70
2023/11/06 11:11:21;;;;;;;4.07;1.17;;;;;;;24.50;37.01;99203.22;4483654;32;34741;-69
2023/11/06 11:13:48;;;;;;;4.03;1.23;;;;;;;24.51;36.86;99201.31;4483597;32;34442;-68
2023/11/06 11:16:35;;;;;;;3.45;1.30;;;;;;;24.49;36.76;99195.28;4484839;32;33428;-68
2023/11/06 11:19:21;;;;;;;2.40;1.12;;;;;;;24.50;36.94;99208.66;4484889;32;34845;-69
2023/11/06 11:22:18;;;;;;;3.20;1.27;;;;;;;24.48;36.70;99205.38;4484865;32;34012;-65
2023/11/06 11:24:49;;;;;;;2.20;1.10;;;;;;;24.48;36.72;99213.56;4471800;31;33726;-69
2023/11/06 11:27:21;;;;;;;4.25;1.10;;;;;;;24.46;36.81;99198.50;4484945;32;34297;-68
2023/11/06 11:29:58;;;;;;;3.15;1.00;;;;;;;24.44;36.72;99204.22;4484680;32;34027;-71
2023/11/06 11:32:28;;;;;;;4.57;1.30;;;;;;;24.45;37.03;99196.84;4484917;32;33907;-67
2023/11/06 11:35:18;;;;;;;3.33;1.20;;;;;;;24.43;36.96;99208.00;4484914;32;33828;-69
2023/11/06 11:37:58;;;;;;;3.85;1.62;;;;;;;24.44;37.01;99198.75;4484804;32;34304;-70
2023/11/06 11:40:41;;;;;;;;;;;;;;;24.44;37.00;99198.75;4484099;32;33840;-67